Marion, TX (78124)

4:38 AM CST on February 27, 2017 (GMT -0600)
Marion | | Change Station

Elev 656 ft 29.55 °N, 98.13 °W | Updated 1 minute ago

Overcast
Overcast
66.5 °F
Feels Like 66.5 °F
N
0.0
Wind Variable Wind from ESE
Gusts 1.0 mph

Today
High -- | Low -- °F
--% Chance of Precip.
Yesterday
High -- | Low -- °F
Precip. -- in
Pressure 29.89 in
Visibility 10.0 miles
Clouds Overcast 1400 ft
Dew Point 64 °F
Humidity 93%
Rainfall 0.00 in
Snow Depth Not available.
6:59 AM 6:30 PM
New Moon, 1% visible
SPECI KRND 271028Z AUTO 15004KT 10SM OVC014 20/20 A2991 RMK AO2 SLP122 $
Pressure 29.89 in
Visibility 10.0 miles
Clouds Overcast 1400 ft
Dew Point 64 °F
Humidity 93%
Rainfall 0.00 in
Snow Depth Not available.
6:59 AM 6:30 PM
New Moon, 1% visible
SPECI KRND 271028Z AUTO 15004KT 10SM OVC014 20/20 A2991 RMK AO2 SLP122 $

Get Your Daily Forecast Email!

Thanks for signing up!

Be on the lookout for a verification email in your inbox.

You'll start receiving the daily forecast at 8 AM.

×

10-Day Weather Forecast

Almanac

Astronomy

Feb. 27, 2017 Rise Set
Actual Time
Civil Twilight
Nautical Twilight
Astronomical Twilight
Moon
Length of Visible Light
Length of Day
Tomorrow will be .
, % of the Moon is Illuminated

Today's Extremes

State Highs State Lows

Community

WunderPhotos

Upload Photos

1,962,540 photos uploaded!

WunderBlog® & News

Nearby

Air Quality

  Air Quality AQ Index Pollutant
Not available.

Snow Depth

Station Depth Elevation

Earthquake Activity

City Distance Mag. Time & Date
Minimum magnitude displayed is 2.5.

Coastal Water Temperatures

Place Temperature

Stations

Nearby Weather Stations

Station Location Temp. Windchill Dew Point Humidity Wind Precip. Elev Updated Type
                   

Watches & Warnings

There are currently no watches in effect.